Time;durP1;ratioP1;P1;durP2;ratioP2;P2;SDS_P1;SDS_P2;PMS_P1;PMS_P2;Temp;Humidity;BMP_temperature;BMP_pressure;BME280_temperature;BME280_humidity;BME280_pressure;Samples;Min_cycle;Max_cycle;Signal;HPM_P1;HPM_P2
2023/09/05 00:03:50;;;;;;;;;;;;;;;22.90;51.29;96328.00;10489790;28;1629;-62
2023/09/05 00:08:50;;;;;;;;;;;;;;;22.91;51.30;96321.66;10481207;28;1585;-62
2023/09/05 00:13:50;;;;;;;;;;;;;;;22.89;51.38;96318.50;10488379;28;1977;-62
2023/09/05 00:18:51;;;;;;;;;;;;;;;22.90;51.39;96314.78;10483018;28;1486;-62
2023/09/05 00:23:51;;;;;;;;;;;;;;;22.90;51.20;96306.84;10485232;28;1549;-62
2023/09/05 00:28:51;;;;;;;;;;;;;;;22.91;51.50;96308.44;10491276;28;1026;-62
2023/09/05 00:33:51;;;;;;;;;;;;;;;22.90;51.48;96309.50;10488105;28;1906;-62
2023/09/05 00:38:52;;;;;;;;;;;;;;;22.89;51.55;96302.66;10482208;28;1533;-62
2023/09/05 00:43:52;;;;;;;;;;;;;;;22.90;51.46;96309.50;10482494;28;1603;-62
2023/09/05 00:48:52;;;;;;;;;;;;;;;22.89;51.41;96303.44;10486360;28;1726;-62
2023/09/05 00:53:52;;;;;;;;;;;;;;;22.88;51.09;96306.34;10491220;28;5001;-62
2023/09/05 00:58:53;;;;;;;;;;;;;;;22.88;51.22;96307.13;10499434;28;1469;-62
2023/09/05 01:03:54;;;;;;;;;;;;;;;22.88;51.17;96306.34;10485135;28;1549;-62
2023/09/05 01:09:01;;;;;;;;;;;;;;;22.88;51.48;96301.06;10486205;28;1096;-62
2023/09/05 01:14:02;;;;;;;;;;;;;;;22.89;51.42;96297.38;10481781;28;1968;-62
2023/09/05 01:19:02;;;;;;;;;;;;;;;22.87;51.43;96288.91;10484644;28;1529;-62
2023/09/05 01:24:15;;;;;;;;;;;;;;;22.88;51.37;96285.19;10472559;28;1341;-62
2023/09/05 01:29:15;;;;;;;;;;;;;;;22.87;51.45;96283.63;10466913;28;1555;-62
2023/09/05 01:34:16;;;;;;;;;;;;;;;22.87;51.21;96283.63;10474681;28;1968;-62
2023/09/05 01:39:16;;;;;;;;;;;;;;;22.88;51.27;96271.97;10481129;28;1091;-62
2023/09/05 01:44:16;;;;;;;;;;;;;;;22.86;51.31;96274.91;10485043;28;1488;-62
2023/09/05 01:49:16;;;;;;;;;;;;;;;22.87;51.07;96267.78;10466666;28;2284;-62
2023/09/05 01:54:17;;;;;;;;;;;;;;;22.86;51.21;96264.31;10497777;28;4930;-62
2023/09/05 01:59:19;;;;;;;;;;;;;;;22.86;51.20;96268.81;10491756;28;1161;-62
2023/09/05 02:04:19;;;;;;;;;;;;;;;22.86;51.13;96266.97;10479034;28;1634;-62
2023/09/05 02:09:19;;;;;;;;;;;;;;;22.86;50.90;96268.81;10479282;28;1914;-62
2023/09/05 02:14:20;;;;;;;;;;;;;;;22.86;51.06;96263.53;10456324;28;1625;-62
2023/09/05 02:19:20;;;;;;;;;;;;;;;22.85;50.75;96269.91;10486062;28;1593;-62
2023/09/05 02:24:20;;;;;;;;;;;;;;;22.85;50.93;96275.19;10485377;28;1102;-62
2023/09/05 02:29:24;;;;;;;;;;;;;;;22.85;50.90;96273.34;10491402;28;1883;-62
2023/09/05 02:34:24;;;;;;;;;;;;;;;22.85;50.83;96275.19;10465217;28;1533;-62
2023/09/05 02:39:24;;;;;;;;;;;;;;;22.86;51.22;96276.75;10468301;28;1039;-62
2023/09/05 02:44:25;;;;;;;;;;;;;;;22.85;50.96;96264.63;10490999;28;2451;-62
2023/09/05 02:49:25;;;;;;;;;;;;;;;22.85;51.05;96269.91;10487988;28;1977;-62
2023/09/05 02:54:28;;;;;;;;;;;;;;;22.85;51.00;96269.91;10485570;28;5033;-62
2023/09/05 02:59:29;;;;;;;;;;;;;;;22.85;51.00;96269.91;10478697;28;1541;-62
2023/09/05 03:04:32;;;;;;;;;;;;;;;22.84;50.95;96270.94;10488667;28;1704;-62
2023/09/05 03:09:32;;;;;;;;;;;;;;;22.84;50.94;96284.16;10477901;28;1906;-62
2023/09/05 03:14:32;;;;;;;;;;;;;;;22.83;50.91;96277.31;10483238;28;1498;-62
2023/09/05 03:19:33;;;;;;;;;;;;;;;22.83;50.66;96277.31;10487210;28;1608;-62
2023/09/05 03:24:33;;;;;;;;;;;;;;;22.84;50.83;96278.88;10470994;28;991;-62
2023/09/05 03:29:33;;;;;;;;;;;;;;;22.83;50.51;96272.81;10475543;28;1902;-62
2023/09/05 03:34:34;;;;;;;;;;;;;;;22.83;50.87;96277.31;10467533;28;1574;-62
2023/09/05 03:39:34;;;;;;;;;;;;;;;22.82;50.59;96275.72;10490853;28;2323;-62
2023/09/05 03:44:34;;;;;;;;;;;;;;;22.83;50.69;96274.66;10484038;28;1625;-62
2023/09/05 03:49:35;;;;;;;;;;;;;;;22.82;50.56;96279.16;10494035;28;1910;-62
2023/09/05 03:54:35;;;;;;;;;;;;;;;22.82;50.60;96270.44;10492232;28;5033;-62
2023/09/05 03:59:35;;;;;;;;;;;;;;;22.82;50.48;96267.78;10475778;28;1426;-62
2023/09/05 04:04:36;;;;;;;;;;;;;;;22.82;50.40;96271.22;10474266;28;1438;-62
2023/09/05 04:09:36;;;;;;;;;;;;;;;22.81;50.40;96271.50;10493595;28;1976;-62
2023/09/05 04:14:36;;;;;;;;;;;;;;;22.81;50.78;96272.31;10475090;28;1391;-62
2023/09/05 04:19:37;;;;;;;;;;;;;;;22.81;50.60;96268.88;10493847;28;1375;-62
2023/09/05 04:24:37;;;;;;;;;;;;;;;22.81;50.39;96276.81;10482641;28;909;-62
2023/09/05 04:29:37;;;;;;;;;;;;;;;22.80;50.36;96283.13;10485025;28;1914;-62
2023/09/05 04:34:37;;;;;;;;;;;;;;;22.81;50.25;96284.72;10488675;28;2222;-62
2023/09/05 04:39:38;;;;;;;;;;;;;;;22.81;50.29;96282.09;10492260;28;1100;-62
2023/09/05 04:44:38;;;;;;;;;;;;;;;22.81;50.33;96295.31;10503621;28;1375;-62
2023/09/05 04:49:38;;;;;;;;;;;;;;;22.80;50.26;96293.72;10486719;28;1910;-62
2023/09/05 04:54:38;;;;;;;;;;;;;;;22.80;50.32;96304.28;10471082;28;1472;-62
2023/09/05 04:59:39;;;;;;;;;;;;;;;22.78;50.27;96291.34;10490084;28;1395;-62
2023/09/05 05:04:40;;;;;;;;;;;;;;;22.80;50.48;96304.28;10489164;28;1567;-62
2023/09/05 05:09:41;;;;;;;;;;;;;;;22.80;50.35;96302.44;10489555;28;1901;-62
2023/09/05 05:14:41;;;;;;;;;;;;;;;22.80;50.20;96301.63;10468646;28;1055;-62
2023/09/05 05:19:41;;;;;;;;;;;;;;;22.81;50.40;96300.59;10469284;28;1500;-62
2023/09/05 05:24:42;;;;;;;;;;;;;;;22.80;50.35;96314.84;10478332;28;983;-62
2023/09/05 05:29:42;;;;;;;;;;;;;;;22.79;50.48;96308.81;10475301;28;1979;-62
2023/09/05 05:34:42;;;;;;;;;;;;;;;22.79;50.09;96308.00;10479872;28;2383;-62
2023/09/05 05:39:42;;;;;;;;;;;;;;;22.79;50.35;96306.16;10490837;28;1045;-62
2023/09/05 05:44:43;;;;;;;;;;;;;;;22.80;50.15;96304.28;10488813;28;1382;-62
2023/09/05 05:49:44;;;;;;;;;;;;;;;22.79;50.05;96302.72;10488487;28;1957;-62
2023/09/05 05:54:44;;;;;;;;;;;;;;;22.80;50.20;96306.94;10484596;28;5201;-62
2023/09/05 05:59:44;;;;;;;;;;;;;;;22.78;50.15;96315.13;10496371;28;1418;-62
2023/09/05 06:04:44;;;;;;;;;;;;;;;22.79;50.06;96321.22;10477600;28;1367;-62
2023/09/05 06:09:45;;;;;;;;;;;;;;;22.79;50.17;96329.16;10493353;28;1973;-62
2023/09/05 06:14:45;;;;;;;;;;;;;;;22.79;50.35;96329.16;10485263;28;1391;-62
2023/09/05 06:19:45;;;;;;;;;;;;;;;22.79;50.16;96326.50;10477560;28;1419;-62
2023/09/05 06:24:45;;;;;;;;;;;;;;;22.79;50.13;96318.56;10476291;28;1003;-62
2023/09/05 06:29:46;;;;;;;;;;;;;;;22.78;50.40;96317.78;10485386;28;2324;-62
2023/09/05 06:34:46;;;;;;;;;;;;;;;22.79;50.12;96319.38;10485836;28;1546;-62
2023/09/05 06:39:46;;;;;;;;;;;;;;;22.78;50.19;96320.41;10482035;28;1478;-62
2023/09/05 06:44:47;;;;;;;;;;;;;;;22.79;50.08;96321.22;10478616;28;1510;-62
2023/09/05 06:49:47;;;;;;;;;;;;;;;22.78;50.55;96317.78;10478838;28;1886;-62
2023/09/05 06:54:48;;;;;;;;;;;;;;;22.79;50.15;96313.28;10496425;28;5021;-62
2023/09/05 06:59:51;;;;;;;;;;;;;;;22.79;50.43;96313.28;10485395;28;1581;-62
2023/09/05 07:04:51;;;;;;;;;;;;;;;22.79;50.08;96318.56;10473013;28;1578;-62
2023/09/05 07:09:51;;;;;;;;;;;;;;;22.79;50.36;96315.94;10487946;28;1977;-62
2023/09/05 07:14:52;;;;;;;;;;;;;;;22.79;50.26;96313.28;10482357;28;1561;-62
2023/09/05 07:19:52;;;;;;;;;;;;;;;22.79;50.11;96313.28;10485785;28;1378;-62
2023/09/05 07:24:53;;;;;;;;;;;;;;;22.79;50.11;96315.94;10505819;28;2300;-62
2023/09/05 07:29:53;;;;;;;;;;;;;;;22.79;50.11;96318.56;10495069;28;1957;-62
2023/09/05 07:34:54;;;;;;;;;;;;;;;22.78;50.21;96314.34;10489246;28;1483;-62
2023/09/05 07:39:54;;;;;;;;;;;;;;;22.78;50.34;96309.06;10488326;28;1479;-62
2023/09/05 07:44:55;;;;;;;;;;;;;;;22.79;50.16;96313.28;10479872;28;1396;-62
2023/09/05 07:49:55;;;;;;;;;;;;;;;22.80;50.40;96317.50;10476481;28;1938;-62
2023/09/05 07:54:55;;;;;;;;;;;;;;;22.78;50.19;96312.50;10507867;28;5002;-62
2023/09/05 07:59:55;;;;;;;;;;;;;;;22.78;50.34;96312.50;10489545;28;1358;-62
2023/09/05 08:04:56;;;;;;;;;;;;;;;22.79;50.26;96302.72;10489408;28;1326;-63
2023/09/05 08:09:56;;;;;;;;;;;;;;;22.79;50.52;96308.00;10482999;28;1910;-62
2023/09/05 08:14:57;;;;;;;;;;;;;;;22.79;50.25;96308.00;10479186;28;1394;-62
2023/09/05 08:19:57;;;;;;;;;;;;;;;22.80;50.60;96317.50;10475032;28;2216;-62
2023/09/05 08:24:58;;;;;;;;;;;;;;;22.79;50.63;96308.81;10482519;28;1407;-62
2023/09/05 08:29:59;;;;;;;;;;;;;;;22.80;50.63;96306.94;10490378;28;1906;-62
2023/09/05 08:34:59;;;;;;;;;;;;;;;22.80;50.60;96315.66;10488409;28;1560;-62
2023/09/05 08:39:59;;;;;;;;;;;;;;;22.80;50.65;96304.28;10486219;28;1076;-62
2023/09/05 08:44:59;;;;;;;;;;;;;;;22.80;50.71;96301.63;10494663;28;1398;-62
2023/09/05 08:50:00;;;;;;;;;;;;;;;22.81;50.72;96305.88;10500049;28;1898;-62
2023/09/05 08:55:02;;;;;;;;;;;;;;;22.81;50.82;96308.53;10490837;28;5096;-62
2023/09/05 09:00:04;;;;;;;;;;;;;;;22.82;50.56;96313.53;10483421;28;1363;-62
2023/09/05 09:05:04;;;;;;;;;;;;;;;22.82;50.77;96297.66;10476411;28;1391;-62
2023/09/05 09:10:18;;;;;;;;;;;;;;;22.83;50.46;96287.88;10474051;28;1965;-62
2023/09/05 09:15:18;;;;;;;;;;;;;;;22.82;50.62;96297.66;10517415;28;1365;-62
2023/09/05 09:20:19;;;;;;;;;;;;;;;22.84;50.66;96289.44;10488034;28;2513;-62
2023/09/05 09:25:23;;;;;;;;;;;;;;;22.83;50.39;96285.25;10467861;28;1091;-62
2023/09/05 09:30:24;;;;;;;;;;;;;;;22.85;50.53;96285.75;10479942;28;1977;-62
2023/09/05 09:35:24;;;;;;;;;;;;;;;22.87;50.34;96283.63;10513176;28;1775;-62
2023/09/05 09:40:24;;;;;;;;;;;;;;;22.86;50.68;96287.31;10509654;28;1228;-62
2023/09/05 09:45:26;;;;;;;;;;;;;;;22.85;50.70;96275.97;10475527;28;1394;-62
2023/09/05 09:50:26;;;;;;;;;;;;;;;22.88;50.47;96274.63;10493905;28;2012;-62
2023/09/05 09:55:26;;;;;;;;;;;;;;;22.88;50.78;96270.13;10486573;28;5126;-62
2023/09/05 10:00:27;;;;;;;;;;;;;;;22.89;50.73;96265.63;10514149;28;1410;-62
2023/09/05 10:05:27;;;;;;;;;;;;;;;22.89;50.62;96261.16;10497101;28;1371;-62
2023/09/05 10:10:27;;;;;;;;;;;;;;;22.89;50.81;96260.34;10525227;28;2020;-63
2023/09/05 10:15:28;;;;;;;;;;;;;;;22.90;50.61;96253.97;10474368;28;2399;-62
2023/09/05 10:20:30;;;;;;;;;;;;;;;22.90;50.99;96264.56;10507172;28;1528;-62
2023/09/05 10:25:30;;;;;;;;;;;;;;;22.91;50.67;96253.72;10510049;28;1220;-62
2023/09/05 10:30:37;;;;;;;;;;;;;;;22.92;50.63;96252.66;10479222;28;1964;-64
2023/09/05 10:35:39;;;;;;;;;;;;;;;22.92;50.82;96246.56;10486023;28;1404;-62
2023/09/05 10:40:39;;;;;;;;;;;;;;;22.93;50.77;96234.94;10516696;28;1081;-62
2023/09/05 10:45:40;;;;;;;;;;;;;;;22.93;50.81;96224.38;10484928;28;1433;-62
2023/09/05 10:50:59;;;;;;;;;;;;;;;22.94;50.62;96223.28;10492320;28;1894;-62
2023/09/05 10:55:59;;;;;;;;;;;;;;;22.95;50.87;96227.53;10477575;28;5150;-62
2023/09/05 11:01:00;;;;;;;;;;;;;;;22.95;50.95;96232.81;10471651;28;1392;-62
2023/09/05 11:06:09;;;;;;;;;;;;;;;22.95;50.85;96220.38;10480196;28;1367;-62
2023/09/05 11:11:09;;;;;;;;;;;;;;;22.96;51.01;96213.22;10495516;28;2283;-62
2023/09/05 11:16:10;;;;;;;;;;;;;;;22.98;50.88;96205.84;10483096;28;1614;-62
2023/09/05 11:21:17;;;;;;;;;;;;;;;22.98;51.01;96200.53;10474247;28;1471;-62
2023/09/05 11:26:18;;;;;;;;;;;;;;;22.98;50.87;96203.19;10473330;28;1584;-62
2023/09/05 11:31:18;;;;;;;;;;;;;;;22.98;51.04;96193.38;10509505;28;1906;-62
2023/09/05 11:36:19;;;;;;;;;;;;;;;23.00;50.79;96187.84;10488071;28;1391;-62
2023/09/05 11:41:20;;;;;;;;;;;;;;;23.00;51.06;96188.59;10480152;28;1018;-62
2023/09/05 11:46:20;;;;;;;;;;;;;;;23.00;51.11;96171.97;10482511;28;1402;-62
2023/09/05 11:51:20;;;;;;;;;;;;;;;23.01;51.10;96173.53;10483381;28;1910;-62
2023/09/05 11:56:20;;;;;;;;;;;;;;;23.01;50.70;96173.53;10506276;28;5255;-62
2023/09/05 12:01:27;;;;;;;;;;;;;;;23.02;51.04;96165.31;10521041;28;1747;-62
2023/09/05 12:06:28;;;;;;;;;;;;;;;23.03;51.06;96166.09;10494172;28;2402;-62
2023/09/05 12:11:28;;;;;;;;;;;;;;;23.04;50.77;96162.41;10493737;28;1913;-62
2023/09/05 12:16:28;;;;;;;;;;;;;;;23.05;51.11;96150.75;10495823;28;1517;-62
2023/09/05 12:21:41;;;;;;;;;;;;;;;23.06;50.92;96155.00;10478112;28;1646;-62
2023/09/05 12:26:42;;;;;;;;;;;;;;;23.05;51.15;96148.91;10483583;28;1581;-61
2023/09/05 12:31:44;;;;;;;;;;;;;;;23.07;50.96;96151.25;10496832;28;1977;-62
2023/09/05 12:36:44;;;;;;;;;;;;;;;23.07;51.36;96140.69;10507103;28;1691;-62
2023/09/05 12:41:46;;;;;;;;;;;;;;;23.07;51.16;96124.81;10488005;28;1010;-62
2023/09/05 12:46:46;;;;;;;;;;;;;;;23.07;51.04;96120.31;10478960;28;1385;-62
2023/09/05 12:51:49;;;;;;;;;;;;;;;23.08;51.04;96121.88;10484406;28;1906;-62
2023/09/05 12:56:50;;;;;;;;;;;;;;;23.09;51.20;96106.81;10497276;28;1099;-61
2023/09/05 13:01:52;;;;;;;;;;;;;;;23.10;51.00;96103.13;10483438;28;2394;-62
2023/09/05 13:06:53;;;;;;;;;;;;;;;23.10;51.23;96092.53;10485021;28;1654;-62
2023/09/05 13:11:54;;;;;;;;;;;;;;;23.11;51.08;96094.91;10486630;28;1910;-62
2023/09/05 13:16:55;;;;;;;;;;;;;;;23.11;51.00;96094.91;10489133;28;1019;-60
2023/09/05 13:21:55;;;;;;;;;;;;;;;23.12;51.19;96088.53;10479882;28;1509;-62
2023/09/05 13:26:56;;;;;;;;;;;;;;;23.13;51.11;96092.75;10504419;28;1051;-62
2023/09/05 13:31:56;;;;;;;;;;;;;;;23.13;50.88;96091.97;10488883;28;1949;-62
2023/09/05 13:36:57;;;;;;;;;;;;;;;23.13;51.25;96092.75;10487863;28;1364;-62
2023/09/05 13:42:01;;;;;;;;;;;;;;;23.14;51.02;96090.91;10482011;28;1066;-61
2023/09/05 13:47:01;;;;;;;;;;;;;;;23.14;50.95;96093.56;10471294;28;1444;-62
2023/09/05 13:52:02;;;;;;;;;;;;;;;23.13;50.80;96084.81;10490309;28;1913;-62
2023/09/05 13:57:02;;;;;;;;;;;;;;;23.14;51.37;96075.03;10488508;28;5224;-61
2023/09/05 14:02:03;;;;;;;;;;;;;;;23.15;51.08;96073.97;10487255;28;1567;-62
2023/09/05 14:07:03;;;;;;;;;;;;;;;23.16;51.07;96091.41;10480862;28;1459;-61
2023/09/05 14:12:03;;;;;;;;;;;;;;;23.16;50.99;96081.59;10481263;28;1914;-62
2023/09/05 14:17:04;;;;;;;;;;;;;;;23.15;51.07;96085.34;10478597;28;1608;-61
2023/09/05 14:22:04;;;;;;;;;;;;;;;23.17;51.58;96082.41;10476253;28;1370;-62
2023/09/05 14:27:04;;;;;;;;;;;;;;;23.16;51.36;96097.47;10495294;28;1011;-62
2023/09/05 14:32:04;;;;;;;;;;;;;;;23.16;51.27;96080.84;10490435;28;1906;-62
2023/09/05 14:37:05;;;;;;;;;;;;;;;23.16;51.07;96089.53;10478083;28;1365;-62
2023/09/05 14:42:05;;;;;;;;;;;;;;;23.16;51.06;96083.47;10473180;28;1465;-62
2023/09/05 14:47:05;;;;;;;;;;;;;;;23.17;51.23;96072.63;10477002;28;1183;-62
2023/09/05 14:52:06;;;;;;;;;;;;;;;23.17;51.09;96077.09;10489155;28;1930;-62
2023/09/05 14:57:06;;;;;;;;;;;;;;;23.16;51.22;96073.66;10481622;28;5099;-62
2023/09/05 15:02:06;;;;;;;;;;;;;;;23.17;50.99;96072.63;10485663;28;1465;-62
2023/09/05 15:07:08;;;;;;;;;;;;;;;23.17;51.12;96067.31;10476637;28;1409;-62
2023/09/05 15:12:08;;;;;;;;;;;;;;;23.17;51.10;96069.97;10473613;28;1909;-62
2023/09/05 15:17:08;;;;;;;;;;;;;;;23.17;51.25;96067.31;10490535;28;1038;-62
2023/09/05 15:22:08;;;;;;;;;;;;;;;23.17;51.23;96064.69;10486303;28;1384;-62
2023/09/05 15:27:09;;;;;;;;;;;;;;;23.16;50.78;96073.66;10495212;28;1103;-62
2023/09/05 15:32:09;;;;;;;;;;;;;;;23.17;51.07;96080.56;10483097;28;1946;-62
2023/09/05 15:37:12;;;;;;;;;;;;;;;23.17;51.02;96079.75;10479376;28;1420;-61
2023/09/05 15:42:13;;;;;;;;;;;;;;;23.16;50.79;96084.25;10489719;28;1224;-62
2023/09/05 15:47:13;;;;;;;;;;;;;;;23.17;50.87;96087.69;10492438;28;1482;-62
2023/09/05 15:52:16;;;;;;;;;;;;;;;23.16;50.94;96086.13;10484242;28;2342;-62
2023/09/05 15:57:17;;;;;;;;;;;;;;;23.16;51.02;96086.13;10490473;28;1475;-62
2023/09/05 16:02:17;;;;;;;;;;;;;;;23.14;50.83;96077.69;10482000;28;1467;-61
2023/09/05 16:07:18;;;;;;;;;;;;;;;23.15;50.75;96073.97;10478858;28;1333;-62
2023/09/05 16:12:18;;;;;;;;;;;;;;;23.16;51.10;96075.56;10491022;28;1941;-62
2023/09/05 16:17:21;;;;;;;;;;;;;;;23.15;50.67;96077.41;10498132;28;1488;-62
2023/09/05 16:22:21;;;;;;;;;;;;;;;23.14;50.73;96082.97;10491637;28;1317;-61
2023/09/05 16:27:21;;;;;;;;;;;;;;;23.15;50.74;96089.81;10489777;28;1379;-62
2023/09/05 16:32:22;;;;;;;;;;;;;;;23.14;50.69;96094.31;10479111;28;2403;-62
2023/09/05 16:37:22;;;;;;;;;;;;;;;23.13;50.69;96095.41;10476633;28;1351;-62
2023/09/05 16:42:22;;;;;;;;;;;;;;;23.13;50.81;96081.38;10500049;28;976;-62
2023/09/05 16:47:22;;;;;;;;;;;;;;;23.12;50.59;96083.25;10489295;28;2287;-62
2023/09/05 16:52:23;;;;;;;;;;;;;;;23.13;50.41;96091.97;10471408;28;5180;-62
2023/09/05 16:57:23;;;;;;;;;;;;;;;23.12;50.56;96096.47;10479131;28;1539;-61
2023/09/05 17:02:24;;;;;;;;;;;;;;;23.11;50.64;96094.91;10481829;28;1415;-62
2023/09/05 17:07:25;;;;;;;;;;;;;;;23.13;50.46;96099.91;10473812;28;1357;-62
2023/09/05 17:12:25;;;;;;;;;;;;;;;23.12;50.68;96095.69;10493229;28;1914;-62
2023/09/05 17:17:25;;;;;;;;;;;;;;;23.12;50.74;96095.69;10489156;28;1488;-62
2023/09/05 17:22:25;;;;;;;;;;;;;;;23.12;50.64;96111.56;10481042;28;1419;-62
2023/09/05 17:27:26;;;;;;;;;;;;;;;23.10;50.55;96106.53;10484914;28;967;-62
2023/09/05 17:32:26;;;;;;;;;;;;;;;23.10;50.43;96108.41;10473409;28;1913;-62
2023/09/05 17:37:26;;;;;;;;;;;;;;;23.11;50.55;96112.63;10487754;28;1454;-61
2023/09/05 17:42:27;;;;;;;;;;;;;;;23.10;50.46;96114.47;10490789;28;1437;-62
2023/09/05 17:47:27;;;;;;;;;;;;;;;23.11;50.36;96120.53;10487500;28;1734;-62
2023/09/05 17:52:27;;;;;;;;;;;;;;;23.09;50.37;96127.97;10484171;28;5164;-61
2023/09/05 17:57:28;;;;;;;;;;;;;;;23.11;50.60;96131.13;10475520;28;1630;-62
2023/09/05 18:02:28;;;;;;;;;;;;;;;23.09;50.66;96133.25;10475247;28;1355;-62
2023/09/05 18:07:28;;;;;;;;;;;;;;;23.09;50.41;96136.69;10486982;28;1358;-62
2023/09/05 18:12:29;;;;;;;;;;;;;;;23.10;50.65;96145.44;10489792;28;1989;-62
2023/09/05 18:17:30;;;;;;;;;;;;;;;23.09;50.43;96149.13;10483370;28;979;-62
2023/09/05 18:22:30;;;;;;;;;;;;;;;23.09;50.28;96141.19;10476757;28;1308;-62
2023/09/05 18:27:30;;;;;;;;;;;;;;;23.09;50.31;96146.47;10479115;28;1382;-62
2023/09/05 18:32:30;;;;;;;;;;;;;;;23.08;50.60;96150.22;10489403;28;2004;-62
2023/09/05 18:37:31;;;;;;;;;;;;;;;23.08;50.35;96155.50;10479521;28;1404;-62
2023/09/05 18:42:33;;;;;;;;;;;;;;;23.09;50.21;96151.78;10481554;28;2411;-62
2023/09/05 18:47:34;;;;;;;;;;;;;;;23.08;50.20;96158.13;10481129;28;1707;-62
2023/09/05 18:52:34;;;;;;;;;;;;;;;23.08;50.36;96144.91;10490561;28;5026;-62
2023/09/05 18:57:37;;;;;;;;;;;;;;;23.08;50.28;96148.34;10482001;28;1202;-62
2023/09/05 19:02:38;;;;;;;;;;;;;;;23.07;50.66;96152.06;10504427;28;1537;-62
2023/09/05 19:07:38;;;;;;;;;;;;;;;23.06;50.25;96145.19;10495055;28;1323;-62
2023/09/05 19:12:38;;;;;;;;;;;;;;;23.06;50.59;96145.19;10491847;28;1926;-62
2023/09/05 19:17:39;;;;;;;;;;;;;;;23.07;50.44;96148.63;10467934;28;1056;-61
2023/09/05 19:22:39;;;;;;;;;;;;;;;23.07;50.52;96146.78;10507085;28;1386;-62
2023/09/05 19:27:42;;;;;;;;;;;;;;;23.07;50.74;96145.97;10490830;28;1394;-62
2023/09/05 19:32:42;;;;;;;;;;;;;;;23.07;50.50;96140.69;10506662;28;1914;-62
2023/09/05 19:37:42;;;;;;;;;;;;;;;23.06;50.54;96139.88;10490173;28;2398;-62
2023/09/05 19:42:45;;;;;;;;;;;;;;;23.06;50.39;96139.13;10496308;28;1549;-62
2023/09/05 19:47:45;;;;;;;;;;;;;;;23.07;50.62;96135.41;10486660;28;1387;-62
2023/09/05 19:52:46;;;;;;;;;;;;;;;23.06;50.65;96133.84;10483689;28;4915;-62
2023/09/05 19:57:46;;;;;;;;;;;;;;;23.06;50.57;96128.53;10495403;28;1414;-62
2023/09/05 20:02:46;;;;;;;;;;;;;;;23.05;50.44;96130.41;10477835;28;1464;-62
2023/09/05 20:07:46;;;;;;;;;;;;;;;23.05;50.44;96126.97;10491602;28;1467;-62
2023/09/05 20:12:47;;;;;;;;;;;;;;;23.05;50.47;96122.47;10512352;28;1910;-62
2023/09/05 20:17:47;;;;;;;;;;;;;;;23.04;50.66;96126.16;10495481;28;1091;-62
2023/09/05 20:22:47;;;;;;;;;;;;;;;23.04;50.60;96125.41;10492873;28;1386;-62
2023/09/05 20:27:47;;;;;;;;;;;;;;;23.04;50.47;96126.16;10498200;28;1285;-62
2023/09/05 20:32:48;;;;;;;;;;;;;;;23.04;50.53;96114.81;10492824;28;2473;-62
2023/09/05 20:37:48;;;;;;;;;;;;;;;23.04;50.34;96120.09;10468724;28;1362;-62
2023/09/05 20:42:48;;;;;;;;;;;;;;;23.03;50.18;96105.28;10486848;28;1434;-62
2023/09/05 20:47:49;;;;;;;;;;;;;;;23.04;50.25;96109.53;10484709;28;1433;-62
2023/09/05 20:52:49;;;;;;;;;;;;;;;23.03;50.44;96108.75;10486033;28;4983;-62
2023/09/05 20:57:50;;;;;;;;;;;;;;;23.04;50.26;96110.28;10489275;28;1576;-62
2023/09/05 21:02:50;;;;;;;;;;;;;;;23.03;50.23;96119.31;10485174;28;1424;-62
2023/09/05 21:07:50;;;;;;;;;;;;;;;23.03;50.46;96106.09;10507371;28;1339;-62
2023/09/05 21:12:54;;;;;;;;;;;;;;;23.03;50.30;96105.28;10476312;28;1981;-62
2023/09/05 21:17:54;;;;;;;;;;;;;;;23.02;50.56;96101.09;10519040;28;1145;-62
2023/09/05 21:22:54;;;;;;;;;;;;;;;23.02;50.12;96103.75;10494283;28;1346;-62
2023/09/05 21:27:54;;;;;;;;;;;;;;;23.03;50.52;96100.81;10486226;28;2478;-62
2023/09/05 21:32:55;;;;;;;;;;;;;;;23.03;50.23;96107.94;10481882;28;1922;-62
2023/09/05 21:37:56;;;;;;;;;;;;;;;23.00;50.29;96098.72;10477808;28;1526;-62
2023/09/05 21:42:57;;;;;;;;;;;;;;;23.01;50.50;96104.78;10520027;28;1561;-62
2023/09/05 21:47:57;;;;;;;;;;;;;;;23.02;50.45;96098.44;10489812;28;1576;-62
2023/09/05 21:52:57;;;;;;;;;;;;;;;23.01;50.14;96099.50;10481030;28;5093;-62
2023/09/05 21:57:58;;;;;;;;;;;;;;;23.01;50.28;96099.50;10486049;28;1491;-62
2023/09/05 22:03:02;;;;;;;;;;;;;;;23.01;50.27;96091.56;10482973;28;1432;-62
2023/09/05 22:08:06;;;;;;;;;;;;;;;23.00;50.33;96090.78;10480304;28;1600;-62
2023/09/05 22:13:06;;;;;;;;;;;;;;;23.01;50.25;96094.22;10505844;28;1973;-62
2023/09/05 22:18:07;;;;;;;;;;;;;;;23.01;50.14;96096.84;10487960;28;1161;-62
2023/09/05 22:23:11;;;;;;;;;;;;;;;23.01;50.06;96091.56;10476286;28;1559;-62
2023/09/05 22:28:11;;;;;;;;;;;;;;;23.00;50.09;96087.38;10478679;28;2390;-62
2023/09/05 22:33:12;;;;;;;;;;;;;;;23.00;50.33;96079.44;10473005;28;1977;-62
2023/09/05 22:38:12;;;;;;;;;;;;;;;23.00;50.05;96082.06;10489373;28;1090;-62
2023/09/05 22:43:12;;;;;;;;;;;;;;;23.00;50.35;96076.78;10488372;28;1334;-62
2023/09/05 22:48:12;;;;;;;;;;;;;;;22.99;50.06;96083.94;10480973;28;1378;-62
2023/09/05 22:53:13;;;;;;;;;;;;;;;22.99;50.21;96091.06;10483219;28;4998;-62
2023/09/05 22:58:13;;;;;;;;;;;;;;;22.99;50.20;96094.50;10498828;28;1288;-62
2023/09/05 23:03:13;;;;;;;;;;;;;;;22.99;50.25;96088.41;10484276;28;1437;-62
2023/09/05 23:08:13;;;;;;;;;;;;;;;22.99;50.26;96085.78;10496552;28;1434;-62
2023/09/05 23:13:14;;;;;;;;;;;;;;;22.99;50.13;96088.41;10487334;28;1906;-62
2023/09/05 23:18:15;;;;;;;;;;;;;;;22.98;49.96;96089.50;10488714;28;1422;-62
2023/09/05 23:23:15;;;;;;;;;;;;;;;22.99;50.15;96088.41;10477393;28;2335;-62
2023/09/05 23:28:17;;;;;;;;;;;;;;;22.98;50.24;96084.97;10497719;28;1600;-62
2023/09/05 23:33:17;;;;;;;;;;;;;;;22.98;49.93;96089.50;10487655;28;1965;-62
2023/09/05 23:38:18;;;;;;;;;;;;;;;22.97;50.03;96093.19;10487937;28;1523;-62
2023/09/05 23:43:18;;;;;;;;;;;;;;;22.97;50.24;96088.72;10509999;28;1585;-62
2023/09/05 23:48:19;;;;;;;;;;;;;;;22.98;49.88;96092.16;10488143;28;1844;-62
2023/09/05 23:53:19;;;;;;;;;;;;;;;22.97;50.25;96087.91;10489416;28;5037;-62
2023/09/05 23:58:20;;;;;;;;;;;;;;;22.97;49.89;96077.34;10491878;28;1617;-62
